Time;durP1;ratioP1;P1;durP2;ratioP2;P2;SDS_P1;SDS_P2;PMS_P1;PMS_P2;Temp;Humidity;BMP_temperature;BMP_pressure;BME280_temperature;BME280_humidity;BME280_pressure;Samples;Min_cycle;Max_cycle;Signal;HPM_P1;HPM_P2
2023/10/23 00:00:08;;;;;;;8.45;6.82;;;;;;;11.24;98.49;100113.16;10124934;29;20056;-77
2023/10/23 00:05:13;;;;;;;7.88;6.35;;;;;;;11.16;99.04;100125.56;10117923;29;20149;-77
2023/10/23 00:10:17;;;;;;;9.18;7.45;;;;;;;11.17;99.29;100128.13;10105712;29;20063;-77
2023/10/23 00:15:21;;;;;;;10.48;7.00;;;;;;;11.20;98.93;100129.69;10116271;29;20051;-76
2023/10/23 00:20:24;;;;;;;7.57;6.57;;;;;;;11.17;99.25;100127.28;10116962;29;20950;-76
2023/10/23 00:25:27;;;;;;;8.25;7.05;;;;;;;11.22;99.12;100130.41;10115143;29;20048;-76
2023/10/23 00:30:35;;;;;;;11.05;7.45;;;;;;;11.17;99.34;100138.88;10110283;29;20444;-77
2023/10/23 00:35:38;;;;;;;8.85;7.50;;;;;;;11.21;99.18;100142.97;10102019;29;20531;-77
2023/10/23 00:40:41;;;;;;;8.23;7.38;;;;;;;11.24;98.96;100142.75;10122216;29;20051;-77
2023/10/23 00:45:51;;;;;;;9.55;7.13;;;;;;;11.22;99.06;100157.31;10108170;29;21221;-77
2023/10/23 00:50:58;;;;;;;11.30;7.68;;;;;;;11.21;99.40;100160.97;10111136;29;20052;-77
2023/10/23 00:56:04;;;;;;;10.10;7.50;;;;;;;11.27;99.34;100161.28;10121648;29;20059;-77
2023/10/23 01:01:11;;;;;;;12.65;7.18;;;;;;;11.32;98.42;100174.31;10120777;29;20071;-77
2023/10/23 01:06:15;;;;;;;8.93;7.72;;;;;;;11.07;100.00;100164.81;10116817;29;20059;-77
2023/10/23 01:11:18;;;;;;;10.35;8.57;;;;;;;11.21;99.54;100164.50;10116529;29;20049;-77
2023/10/23 01:16:22;;;;;;;10.55;8.55;;;;;;;11.35;98.54;100163.28;10099267;29;20052;-77
2023/10/23 01:21:25;;;;;;;13.30;8.82;;;;;;;11.34;98.33;100161.59;10116849;29;20059;-77
2023/10/23 01:26:29;;;;;;;12.88;8.98;;;;;;;11.37;98.15;100158.63;10107183;29;20063;-77
2023/10/23 01:31:32;;;;;;;10.32;8.00;;;;;;;11.37;97.90;100161.31;10117468;29;20186;-77
2023/10/23 01:36:35;;;;;;;11.23;8.60;;;;;;;11.42;97.99;100167.16;10121757;29;20079;-77
2023/10/23 01:41:40;;;;;;;13.45;9.32;;;;;;;11.39;97.87;100151.28;10103980;29;20053;-77
2023/10/23 01:46:42;;;;;;;14.38;8.95;;;;;;;11.50;97.06;100161.09;10107334;29;20048;-77
2023/10/23 01:51:45;;;;;;;12.25;9.32;;;;;;;11.48;97.13;100161.22;10117782;29;20060;-77
2023/10/23 01:56:50;;;;;;;12.90;8.93;;;;;;;11.56;96.83;100170.47;10133076;29;20048;-77
2023/10/23 02:01:53;;;;;;;12.85;9.13;;;;;;;11.59;96.98;100170.19;10113783;29;20052;-77
2023/10/23 02:06:56;;;;;;;15.18;11.48;;;;;;;11.53;96.46;100168.03;10114071;29;20064;-77
2023/10/23 02:12:04;;;;;;;17.25;12.85;;;;;;;11.39;96.86;100172.78;10113688;29;20044;-77
2023/10/23 02:17:07;;;;;;;17.88;13.82;;;;;;;11.32;97.74;100187.75;10125302;29;20193;-77
2023/10/23 02:22:11;;;;;;;17.88;13.68;;;;;;;11.02;100.00;100196.59;10117687;29;20291;-77
2023/10/23 02:27:15;;;;;;;19.55;14.00;;;;;;;11.12;99.29;100202.06;10102743;29;20055;-77
2023/10/23 02:32:18;;;;;;;19.70;14.82;;;;;;;11.22;99.44;100195.78;10119159;29;21497;-77
2023/10/23 02:37:21;;;;;;;23.45;15.55;;;;;;;11.10;100.00;100195.94;10120451;29;20930;-77
2023/10/23 02:42:25;;;;;;;26.58;17.20;;;;;;;11.05;100.00;100199.91;10115699;29;20056;-77
2023/10/23 02:47:28;;;;;;;28.20;19.40;;;;;;;10.97;100.00;100201.53;10095406;29;20305;-77
2023/10/23 02:52:31;;;;;;;26.63;19.10;;;;;;;10.91;100.00;100199.38;10117001;29;20052;-77
2023/10/23 02:57:35;;;;;;;26.35;17.42;;;;;;;10.62;100.00;100218.81;10106200;29;20055;-77
2023/10/23 03:02:38;;;;;;;26.90;19.88;;;;;;;10.76;100.00;100225.72;10110028;29;20545;-77
2023/10/23 03:07:42;;;;;;;30.52;21.15;;;;;;;10.84;100.00;100229.47;10109725;29;20052;-77
2023/10/23 03:12:46;;;;;;;33.30;20.20;;;;;;;10.93;100.00;100233.19;10127959;29;20056;-77
2023/10/23 03:17:49;;;;;;;30.40;19.23;;;;;;;10.74;100.00;100233.88;10113426;29;20055;-77
2023/10/23 03:22:52;;;;;;;26.20;19.98;;;;;;;10.82;100.00;100244.84;10112262;29;20095;-77
2023/10/23 03:27:56;;;;;;;29.65;20.70;;;;;;;10.84;100.00;100236.66;10127810;29;20595;-77
2023/10/23 03:32:59;;;;;;;30.33;19.48;;;;;;;10.79;100.00;100241.56;10119578;29;20142;-77
2023/10/23 03:38:02;;;;;;;29.98;19.70;;;;;;;10.80;100.00;100249.50;10102916;29;20064;-77
2023/10/23 03:43:06;;;;;;;25.85;18.88;;;;;;;10.86;100.00;100242.78;10104531;29;20064;-77
2023/10/23 03:48:10;;;;;;;24.55;17.80;;;;;;;10.84;100.00;100248.25;10125332;29;20049;-78
2023/10/23 03:53:13;;;;;;;23.08;17.45;;;;;;;10.79;100.00;100247.78;10120095;29;20052;-77
2023/10/23 03:58:18;;;;;;;23.77;17.73;;;;;;;10.71;100.00;100258.34;10122122;29;20628;-78
2023/10/23 04:03:21;;;;;;;27.83;18.23;;;;;;;10.68;100.00;100242.47;10109723;29;20109;-78
2023/10/23 04:08:24;;;;;;;27.08;18.15;;;;;;;10.67;100.00;100239.91;10119343;29;20056;-77
2023/10/23 04:13:28;;;;;;;29.02;19.13;;;;;;;10.62;100.00;100243.00;10101684;29;20513;-78
2023/10/23 04:18:32;;;;;;;24.75;18.60;;;;;;;10.56;100.00;100236.31;10106225;29;20157;-77
2023/10/23 04:23:36;;;;;;;27.45;19.15;;;;;;;10.46;100.00;100232.66;10078106;29;1119276;-77
2023/10/23 04:28:41;;;;;;;31.88;20.38;;;;;;;10.39;100.00;100237.72;10120019;29;20048;-77
2023/10/23 04:33:44;;;;;;;26.77;19.13;;;;;;;10.38;100.00;100240.50;10117145;29;20071;-77
2023/10/23 04:38:47;;;;;;;23.55;17.02;;;;;;;10.28;100.00;100237.72;10101467;29;20040;-77
2023/10/23 04:43:51;;;;;;;35.33;20.17;;;;;;;10.21;100.00;100244.59;10119668;29;20051;-77
2023/10/23 04:48:54;;;;;;;30.83;18.67;;;;;;;10.21;100.00;100244.59;10122736;29;20079;-76
2023/10/23 04:53:57;;;;;;;28.58;19.65;;;;;;;10.10;100.00;100244.59;10106118;29;20575;-76
2023/10/23 04:59:01;;;;;;;37.03;22.95;;;;;;;10.12;100.00;100250.69;10124878;29;20055;-77
2023/10/23 05:04:04;;;;;;;33.28;21.88;;;;;;;10.17;100.00;100256.53;10126025;29;20043;-76
2023/10/23 05:09:08;;;;;;;29.98;21.75;;;;;;;10.14;100.00;100249.59;10131645;29;20520;-77
2023/10/23 05:14:12;;;;;;;30.73;21.08;;;;;;;10.09;100.00;100256.31;10123339;29;20064;-77
2023/10/23 05:19:15;;;;;;;24.95;18.83;;;;;;;10.01;100.00;100258.75;10101262;29;20242;-77
2023/10/23 05:24:18;;;;;;;30.45;20.15;;;;;;;9.87;100.00;100262.53;10120027;29;20095;-77
2023/10/23 05:29:22;;;;;;;26.23;19.50;;;;;;;9.82;100.00;100279.00;10113689;29;20528;-77
2023/10/23 05:34:25;;;;;;;31.50;20.75;;;;;;;9.70;100.00;100278.13;10112374;29;20516;-77
2023/10/23 05:39:28;;;;;;;34.75;22.35;;;;;;;9.60;100.00;100284.31;10108643;29;20051;-77
2023/10/23 05:44:32;;;;;;;31.33;21.58;;;;;;;9.77;100.00;100289.22;10120879;29;20192;-77
2023/10/23 05:49:35;;;;;;;31.63;21.27;;;;;;;9.82;100.00;100294.22;10116653;29;20919;-77
2023/10/23 05:54:38;;;;;;;38.42;23.10;;;;;;;9.89;100.00;100309.75;10117630;29;20056;-77
2023/10/23 05:59:43;;;;;;;40.95;24.35;;;;;;;10.02;100.00;100308.78;10118042;29;20044;-77
2023/10/23 06:04:45;;;;;;;37.22;24.67;;;;;;;10.11;100.00;100308.88;10120765;29;20049;-77
2023/10/23 06:09:48;;;;;;;37.20;23.40;;;;;;;10.17;100.00;100304.84;10125496;29;21270;-77
2023/10/23 06:14:53;;;;;;;35.65;26.25;;;;;;;10.10;100.00;100299.13;10123326;29;20076;-77
2023/10/23 06:19:56;;;;;;;35.38;22.63;;;;;;;9.98;100.00;100310.84;10130751;29;20055;-77
2023/10/23 06:24:59;;;;;;;34.17;22.85;;;;;;;9.90;100.00;100308.78;10117830;29;20169;-77
2023/10/23 06:30:04;;;;;;;33.75;22.15;;;;;;;9.90;100.00;100310.59;10138230;29;20143;-77
2023/10/23 06:35:08;;;;;;;35.65;24.40;;;;;;;9.89;100.00;100314.25;10129365;29;20052;-78
2023/10/23 06:40:11;;;;;;;32.33;20.90;;;;;;;9.85;100.00;100308.25;10122188;29;20761;-77
2023/10/23 06:45:16;;;;;;;32.13;20.92;;;;;;;9.83;100.00;100318.25;10126144;29;20045;-77
2023/10/23 06:50:19;;;;;;;13.38;7.85;;;;;;;10.35;100.00;100324.84;10133057;29;20059;-77
2023/10/23 06:55:24;;;;;;;33.33;20.17;;;;;;;10.77;100.00;100318.75;10126320;29;20052;-78
2023/10/23 07:00:28;;;;;;;28.65;18.10;;;;;;;10.86;100.00;100320.69;10129064;29;20052;-78
2023/10/23 07:05:31;;;;;;;20.20;13.13;;;;;;;11.41;100.00;100318.75;10125000;29;20155;-78
2023/10/23 07:10:35;;;;;;;19.48;11.75;;;;;;;11.97;96.57;100313.94;10116651;29;20057;-78
2023/10/23 07:15:40;;;;;;;21.15;14.50;;;;;;;12.10;92.71;100320.81;10127899;29;20057;-78
2023/10/23 07:20:52;;;;;;;26.52;16.60;;;;;;;12.17;90.25;100326.50;10118768;29;20131;-77
2023/10/23 07:26:10;;;;;;;24.73;17.13;;;;;;;12.30;89.10;100324.44;10116400;29;20055;-78
2023/10/23 07:31:14;;;;;;;24.02;17.55;;;;;;;12.53;87.72;100330.47;10110292;29;20063;-78
2023/10/23 07:36:18;;;;;;;26.33;17.55;;;;;;;12.65;85.48;100325.81;10114524;29;20056;-77
2023/10/23 07:41:21;;;;;;;23.83;16.08;;;;;;;13.12;84.62;100330.53;10118522;29;20062;-78
2023/10/23 07:46:25;;;;;;;25.10;18.65;;;;;;;13.70;80.52;100323.22;10114972;29;20055;-77
2023/10/23 07:51:28;;;;;;;31.05;20.70;;;;;;;14.00;78.14;100321.28;10121767;29;20143;-77
2023/10/23 07:56:31;;;;;;;32.00;20.50;;;;;;;13.99;75.83;100325.00;10120291;29;20055;-78
2023/10/23 08:01:35;;;;;;;27.58;20.40;;;;;;;14.18;75.65;100324.06;10115040;29;21265;-78
2023/10/23 08:06:38;;;;;;;28.17;20.23;;;;;;;14.66;75.23;100325.66;10113984;29;20064;-77
2023/10/23 08:11:41;;;;;;;31.55;21.95;;;;;;;14.97;73.00;100322.59;10130392;29;20044;-78
2023/10/23 08:16:45;;;;;;;28.70;18.77;;;;;;;15.18;71.17;100325.84;10141492;29;20047;-77
2023/10/23 08:21:49;;;;;;;24.02;18.75;;;;;;;15.25;69.36;100316.09;10165472;29;20052;-78
2023/10/23 08:26:52;;;;;;;28.83;19.25;;;;;;;15.20;69.90;100320.28;10170395;29;20141;-78
2023/10/23 08:31:57;;;;;;;24.65;18.55;;;;;;;14.47;71.62;100325.78;10134459;29;20048;-78
2023/10/23 08:37:00;;;;;;;26.17;19.70;;;;;;;14.09;74.06;100325.78;10135097;29;20044;-78
2023/10/23 08:42:04;;;;;;;28.77;19.90;;;;;;;14.04;74.63;100324.53;10133148;29;20049;-78
2023/10/23 08:47:08;;;;;;;30.13;22.10;;;;;;;14.04;75.24;100325.41;10127868;29;20063;-77
2023/10/23 08:52:11;;;;;;;33.10;21.70;;;;;;;14.60;73.71;100329.00;10122979;29;20826;-78
2023/10/23 08:57:15;;;;;;;31.70;21.27;;;;;;;15.25;70.61;100312.56;10122769;29;20080;-78
2023/10/23 09:02:20;;;;;;;28.70;20.55;;;;;;;14.65;71.24;100323.97;10135533;29;20053;-78
2023/10/23 09:07:23;;;;;;;30.42;21.33;;;;;;;14.36;72.42;100314.16;10158402;29;20139;-77
2023/10/23 09:12:33;;;;;;;28.50;20.80;;;;;;;14.54;72.22;100307.97;10140060;29;20052;-78
2023/10/23 09:17:38;;;;;;;29.90;20.02;;;;;;;14.22;72.14;100305.72;10116737;29;21166;-78
2023/10/23 09:22:46;;;;;;;36.35;20.23;;;;;;;14.19;72.53;100317.66;10123362;29;20053;-78
2023/10/23 09:27:50;;;;;;;32.08;20.83;;;;;;;14.34;72.64;100305.38;10122125;29;20047;-78
2023/10/23 09:32:55;;;;;;;33.00;22.10;;;;;;;15.51;70.81;100285.53;10150706;29;20901;-77
2023/10/23 09:37:58;;;;;;;28.40;18.50;;;;;;;16.32;63.54;100298.69;10155275;29;20051;-77
2023/10/23 09:43:02;;;;;;;22.95;16.83;;;;;;;15.52;64.41;100294.50;10141499;29;20048;-76
2023/10/23 09:48:08;;;;;;;25.23;16.10;;;;;;;15.30;66.67;100290.41;10141736;29;20060;-77
2023/10/23 09:53:13;;;;;;;32.17;17.70;;;;;;;15.50;67.03;100291.13;10142902;29;20535;-78
2023/10/23 09:58:20;;;;;;;19.90;15.43;;;;;;;16.99;64.25;100284.25;10124680;29;20057;-77
2023/10/23 10:03:27;;;;;;;19.58;13.25;;;;;;;17.46;59.00;100281.72;10125344;29;20056;-77
2023/10/23 10:08:37;;;;;;;24.98;14.57;;;;;;;16.97;59.33;100289.00;10123410;29;20681;-77
2023/10/23 10:13:41;;;;;;;19.25;15.02;;;;;;;16.49;61.20;100290.63;10128165;29;20104;-78
2023/10/23 10:18:46;;;;;;;18.95;12.88;;;;;;;17.11;60.45;100280.16;10124106;29;20047;-77
2023/10/23 10:23:51;;;;;;;19.38;14.55;;;;;;;17.24;59.08;100279.69;10124717;29;20056;-78
2023/10/23 10:28:55;;;;;;;21.38;15.05;;;;;;;18.12;57.75;100274.25;10115418;29;20045;-77
2023/10/23 10:34:00;;;;;;;17.70;13.85;;;;;;;18.68;55.12;100268.69;10121646;29;20063;-76
2023/10/23 10:39:52;;;;;;;18.30;13.93;;;;;;;19.68;52.49;100263.09;10114676;29;20059;-77
2023/10/23 10:44:56;;;;;;;18.52;13.15;;;;;;;21.25;47.97;100253.63;10131915;29;20074;-77
2023/10/23 10:50:00;;;;;;;15.40;12.07;;;;;;;21.76;47.16;100251.50;10131276;29;20150;-78
2023/10/23 10:55:05;;;;;;;18.65;13.02;;;;;;;21.92;47.08;100244.03;10130825;29;20055;-77
2023/10/23 11:00:09;;;;;;;12.80;10.25;;;;;;;19.73;47.58;100257.09;10130703;29;20512;-77
2023/10/23 11:05:14;;;;;;;15.07;10.10;;;;;;;18.22;52.43;100241.44;10130411;29;20056;-77
2023/10/23 11:10:17;;;;;;;15.27;12.20;;;;;;;18.75;52.91;100234.28;10129019;29;20057;-77
2023/10/23 11:15:20;;;;;;;13.40;9.80;;;;;;;17.62;54.71;100229.22;10126678;29;20138;-77
2023/10/23 11:20:30;;;;;;;14.27;9.45;;;;;;;16.85;56.84;100226.09;10152444;29;21273;-77
2023/10/23 11:25:34;;;;;;;13.35;9.43;;;;;;;16.76;57.81;100217.09;10133817;29;20513;-76
2023/10/23 11:30:45;;;;;;;12.75;8.55;;;;;;;16.70;57.31;100220.50;10132106;29;20057;-77
2023/10/23 11:35:50;;;;;;;8.80;7.23;;;;;;;17.56;56.45;100212.81;10115103;29;20056;-78
2023/10/23 11:40:54;;;;;;;10.90;8.20;;;;;;;17.48;55.59;100211.78;10116660;29;20055;-77
2023/10/23 11:45:57;;;;;;;8.65;7.38;;;;;;;17.06;57.27;100208.44;10122133;29;20041;-77
2023/10/23 11:51:02;;;;;;;12.07;8.90;;;;;;;17.42;57.21;100200.78;10127842;29;20660;-77
2023/10/23 11:56:05;;;;;;;9.93;7.88;;;;;;;17.86;56.02;100182.13;10140317;29;20616;-78
2023/10/23 12:01:08;;;;;;;11.45;7.53;;;;;;;17.76;56.44;100183.34;10140287;29;20079;-78
2023/10/23 12:06:13;;;;;;;9.10;7.30;;;;;;;18.20;54.74;100188.25;10122866;29;20604;-76
2023/10/23 12:11:16;;;;;;;7.85;7.00;;;;;;;18.60;53.38;100172.72;10131880;29;20830;-76
2023/10/23 12:16:19;;;;;;;7.25;6.53;;;;;;;18.82;52.82;100163.72;10125328;29;20721;-77
2023/10/23 12:21:24;;;;;;;8.93;7.10;;;;;;;18.71;53.06;100162.22;10125550;29;20149;-77
2023/10/23 12:26:27;;;;;;;11.52;7.38;;;;;;;18.53;53.92;100154.38;10129547;29;20052;-78
2023/10/23 12:31:30;;;;;;;8.05;7.25;;;;;;;18.36;54.89;100150.09;10124819;29;20063;-77
2023/10/23 12:36:34;;;;;;;8.60;7.70;;;;;;;18.13;55.16;100134.63;10128905;29;20074;-77
2023/10/23 12:41:40;;;;;;;9.77;7.80;;;;;;;18.34;54.76;100142.09;10125092;29;20062;-77
2023/10/23 12:46:43;;;;;;;9.15;7.00;;;;;;;18.60;54.85;100130.03;10095304;29;21217;-77
2023/10/23 12:51:54;;;;;;;9.15;7.40;;;;;;;18.25;54.54;100118.72;10084655;29;20147;-77
2023/10/23 12:56:58;;;;;;;8.98;7.32;;;;;;;17.86;56.63;100107.94;10116399;29;20059;-77
2023/10/23 13:02:01;;;;;;;7.25;6.22;;;;;;;17.35;57.77;100116.47;10120074;29;20051;-77
2023/10/23 13:07:05;;;;;;;6.85;5.80;;;;;;;16.95;59.08;100112.81;10123089;29;20697;-78
2023/10/23 13:12:08;;;;;;;5.55;4.85;;;;;;;17.47;58.78;100106.09;10135339;29;20058;-79
2023/10/23 13:17:11;;;;;;;4.68;4.22;;;;;;;17.38;58.08;100101.69;10126982;29;20938;-76
2023/10/23 13:22:16;;;;;;;7.13;4.13;;;;;;;16.82;59.00;100096.22;10126794;29;20062;-77
2023/10/23 13:27:19;;;;;;;4.68;4.30;;;;;;;16.26;60.99;100092.50;10131020;29;20056;-77
2023/10/23 13:32:22;;;;;;;4.00;3.70;;;;;;;16.08;61.62;100088.06;10129126;29;20058;-76
2023/10/23 13:37:26;;;;;;;5.00;3.22;;;;;;;15.94;61.47;100077.91;10137312;29;20052;-77
2023/10/23 13:42:29;;;;;;;3.00;2.80;;;;;;;15.79;62.81;100066.84;10141725;29;20704;-76
2023/10/23 13:47:32;;;;;;;3.80;3.50;;;;;;;15.80;63.88;100065.00;10136212;29;21235;-77
2023/10/23 13:52:36;;;;;;;4.35;3.30;;;;;;;15.92;63.35;100052.84;10133557;29;20053;-77
2023/10/23 13:57:39;;;;;;;3.70;2.63;;;;;;;15.87;63.10;100045.19;10134943;29;20052;-76
2023/10/23 14:02:42;;;;;;;3.75;2.92;;;;;;;15.64;64.10;100036.03;10125572;29;20072;-77
2023/10/23 14:07:47;;;;;;;3.60;2.85;;;;;;;15.36;64.18;100027.31;10126874;29;20619;-76
2023/10/23 14:12:51;;;;;;;2.65;2.45;;;;;;;15.24;64.30;100029.44;10129243;29;20158;-76
2023/10/23 14:17:54;;;;;;;5.40;2.70;;;;;;;15.02;65.00;100014.63;10124839;29;20424;-77
2023/10/23 14:23:00;;;;;;;3.75;2.83;;;;;;;14.92;65.76;100016.63;10125690;29;20055;-76
2023/10/23 14:28:02;;;;;;;4.10;2.65;;;;;;;14.92;66.47;100020.19;10128097;29;20048;-76
2023/10/23 14:33:06;;;;;;;7.75;3.17;;;;;;;14.76;67.38;100012.84;10122972;29;20080;-76
2023/10/23 14:38:11;;;;;;;4.00;2.53;;;;;;;14.73;67.90;100005.06;10125883;29;20087;-77
2023/10/23 14:43:14;;;;;;;3.58;2.83;;;;;;;14.32;68.38;99998.50;10137281;29;20445;-77
2023/10/23 14:48:17;;;;;;;3.45;2.83;;;;;;;14.54;68.89;99994.47;10133433;29;20051;-76
2023/10/23 14:53:26;;;;;;;5.85;2.80;;;;;;;14.49;69.27;99978.72;10127833;29;21162;-76
2023/10/23 14:58:28;;;;;;;4.85;3.85;;;;;;;14.46;69.25;99972.78;10127098;29;20661;-76
2023/10/23 15:03:31;;;;;;;4.45;3.40;;;;;;;14.50;69.31;99974.16;10117148;29;20076;-76
2023/10/23 15:08:36;;;;;;;5.22;3.03;;;;;;;14.55;69.54;99959.16;10125106;29;20467;-76
2023/10/23 15:13:39;;;;;;;3.83;2.92;;;;;;;14.62;69.58;99962.06;10126684;29;20168;-76
2023/10/23 15:18:41;;;;;;;3.40;3.10;;;;;;;14.57;70.55;99969.81;10126343;29;21298;-76
2023/10/23 15:23:46;;;;;;;5.05;3.33;;;;;;;14.44;71.16;99955.88;10119905;29;20155;-77
2023/10/23 15:28:49;;;;;;;4.97;2.63;;;;;;;14.33;71.81;99941.59;10119323;29;20055;-76
2023/10/23 15:33:52;;;;;;;4.40;3.08;;;;;;;14.14;72.14;99942.66;10116453;29;20116;-76
2023/10/23 15:38:56;;;;;;;3.55;3.08;;;;;;;13.94;72.77;99935.78;10116790;29;20059;-76
2023/10/23 15:43:59;;;;;;;3.33;2.33;;;;;;;13.74;73.22;99924.31;10118736;29;20176;-78
2023/10/23 15:49:02;;;;;;;3.05;2.78;;;;;;;13.66;73.74;99932.34;10107324;29;20044;-78
2023/10/23 15:54:07;;;;;;;6.05;3.28;;;;;;;13.51;73.72;99915.81;10119171;29;20756;-77
2023/10/23 15:59:09;;;;;;;2.97;2.33;;;;;;;13.35;74.35;99911.09;10123656;29;20048;-76
2023/10/23 16:04:14;;;;;;;3.50;2.15;;;;;;;13.28;74.42;99912.72;10132458;29;20044;-77
2023/10/23 16:09:19;;;;;;;2.60;2.15;;;;;;;13.15;74.72;99904.16;10160931;29;20053;-77
2023/10/23 16:14:29;;;;;;;2.95;2.03;;;;;;;12.93;74.96;99918.91;10135736;29;20067;-78
2023/10/23 16:19:41;;;;;;;8.48;1.98;;;;;;;12.78;75.50;99910.47;10130138;29;21317;-77
2023/10/23 16:24:45;;;;;;;2.95;2.38;;;;;;;12.66;76.28;99912.53;10131420;29;20162;-77
2023/10/23 16:29:48;;;;;;;2.90;2.60;;;;;;;12.57;77.13;99911.56;10121241;29;20055;-77
2023/10/23 16:34:52;;;;;;;4.13;2.33;;;;;;;12.48;77.56;99904.41;10118349;29;20108;-77
2023/10/23 16:39:57;;;;;;;4.43;2.67;;;;;;;12.46;77.98;99898.31;10126716;29;20048;-78
2023/10/23 16:44:59;;;;;;;6.28;2.38;;;;;;;12.46;78.32;99892.06;10135427;29;20690;-77
2023/10/23 16:50:04;;;;;;;3.50;2.55;;;;;;;12.49;78.51;99887.22;10133745;29;20056;-78
2023/10/23 16:55:09;;;;;;;3.38;2.05;;;;;;;12.49;78.35;99884.53;10108603;29;20128;-78
2023/10/23 17:00:15;;;;;;;4.35;2.20;;;;;;;12.45;78.34;99871.50;10134445;29;20130;-78
2023/10/23 17:05:18;;;;;;;2.20;2.03;;;;;;;12.39;78.50;99868.41;10121571;29;20063;-78
2023/10/23 17:10:22;;;;;;;2.78;2.42;;;;;;;12.35;78.73;99864.31;10117193;29;20147;-78
2023/10/23 17:15:25;;;;;;;3.45;3.10;;;;;;;12.33;78.90;99868.16;10095432;29;20052;-77
2023/10/23 17:20:30;;;;;;;5.30;3.55;;;;;;;12.26;79.56;99861.63;10118617;29;20051;-79
2023/10/23 17:25:39;;;;;;;4.75;3.00;;;;;;;12.23;79.88;99856.53;10129501;29;20051;-78
2023/10/23 17:30:42;;;;;;;3.53;3.03;;;;;;;12.19;80.18;99850.63;10138376;29;21169;-78
2023/10/23 17:35:51;;;;;;;3.50;3.15;;;;;;;12.17;81.04;99842.66;10131670;29;20640;-79
2023/10/23 17:40:56;;;;;;;4.50;3.83;;;;;;;12.15;81.62;99842.00;10125444;29;20056;-79
2023/10/23 17:46:01;;;;;;;6.93;4.70;;;;;;;12.15;81.85;99839.31;10129777;29;20048;-78
2023/10/23 17:51:08;;;;;;;5.70;4.75;;;;;;;12.15;82.04;99846.53;10100834;29;20187;-79
2023/10/23 17:56:12;;;;;;;5.65;4.78;;;;;;;12.14;82.24;99845.66;10109890;29;20669;-78
2023/10/23 18:01:17;;;;;;;4.80;4.32;;;;;;;12.10;82.54;99844.28;10117026;29;20056;-77
2023/10/23 18:06:20;;;;;;;6.35;4.43;;;;;;;12.14;82.79;99845.66;10095082;29;20066;-78
2023/10/23 18:11:25;;;;;;;9.98;4.45;;;;;;;12.19;82.77;99828.22;10121980;29;20103;-78
2023/10/23 18:16:28;;;;;;;11.75;5.85;;;;;;;12.17;82.65;99826.50;10149639;29;20669;-78
2023/10/23 18:21:31;;;;;;;5.97;4.40;;;;;;;12.17;82.76;99812.22;10141080;29;20130;-78
2023/10/23 18:26:35;;;;;;;9.77;4.10;;;;;;;12.08;82.54;99795.09;10127977;29;21190;-79
2023/10/23 18:31:39;;;;;;;4.72;3.55;;;;;;;12.09;82.21;99790.56;10140946;29;20055;-78
2023/10/23 18:36:42;;;;;;;4.55;3.50;;;;;;;12.08;81.81;99773.56;10126442;29;20059;-79
2023/10/23 18:41:47;;;;;;;4.60;3.35;;;;;;;12.07;81.18;99768.34;10175653;29;20049;-78
2023/10/23 18:46:50;;;;;;;4.50;3.50;;;;;;;12.08;80.53;99751.19;10156129;29;20076;-78
2023/10/23 18:51:53;;;;;;;5.75;3.22;;;;;;;12.07;80.02;99730.66;10162918;29;20047;-78
2023/10/23 18:56:59;;;;;;;8.32;3.72;;;;;;;12.04;79.71;99723.75;10131281;29;20051;-79
2023/10/23 19:02:02;;;;;;;7.20;3.60;;;;;;;12.01;79.53;99733.94;10142940;29;20619;-78
2023/10/23 19:07:05;;;;;;;6.28;3.72;;;;;;;11.99;79.80;99744.03;10125750;29;20052;-78
2023/10/23 19:12:09;;;;;;;5.57;2.90;;;;;;;12.05;79.64;99744.25;10139040;29;20542;-78
2023/10/23 19:17:12;;;;;;;5.13;2.20;;;;;;;12.06;79.75;99726.25;10129457;29;20632;-77
2023/10/23 19:22:29;;;;;;;4.40;2.40;;;;;;;12.03;80.11;99716.63;10141973;29;20048;-78
2023/10/23 19:27:35;;;;;;;3.33;2.22;;;;;;;12.03;80.00;99713.94;10145316;29;20051;-78
2023/10/23 19:32:38;;;;;;;4.05;2.03;;;;;;;12.07;80.18;99714.53;10138707;29;20041;-78
2023/10/23 19:37:42;;;;;;;4.95;1.80;;;;;;;12.10;79.98;99716.91;10177340;29;20060;-78
2023/10/23 19:42:51;;;;;;;4.40;2.20;;;;;;;12.22;79.71;99722.91;10154021;29;20055;-78
2023/10/23 19:47:55;;;;;;;4.75;2.40;;;;;;;12.20;79.70;99733.81;10139029;29;20060;-77
2023/10/23 19:53:00;;;;;;;4.07;2.08;;;;;;;12.25;79.41;99730.69;10142220;29;20151;-78
2023/10/23 19:58:05;;;;;;;2.30;1.70;;;;;;;12.28;79.52;99714.22;10107979;29;20056;-78
2023/10/23 20:03:08;;;;;;;3.58;2.20;;;;;;;12.19;79.91;99728.63;10128542;29;20484;-77
2023/10/23 20:08:11;;;;;;;3.40;2.30;;;;;;;12.24;79.65;99737.94;10127217;29;20064;-79
2023/10/23 20:13:15;;;;;;;3.97;2.45;;;;;;;12.08;80.26;99713.50;10131149;29;20048;-78
2023/10/23 20:18:18;;;;;;;3.38;2.10;;;;;;;12.26;79.76;99684.78;10124461;29;20111;-77
2023/10/23 20:23:21;;;;;;;2.72;2.20;;;;;;;12.16;80.16;99705.53;10097102;29;20060;-78
2023/10/23 20:28:25;;;;;;;8.82;2.75;;;;;;;12.14;80.08;99702.97;10124673;29;20632;-78
2023/10/23 20:33:28;;;;;;;3.83;2.10;;;;;;;12.19;79.68;99705.22;10121896;29;20139;-78
2023/10/23 20:38:31;;;;;;;4.90;2.40;;;;;;;12.19;79.82;99707.06;10122627;29;20460;-78
2023/10/23 20:43:35;;;;;;;4.35;2.47;;;;;;;12.05;80.02;99689.59;10130579;29;20047;-77
2023/10/23 20:48:38;;;;;;;3.90;1.90;;;;;;;12.12;79.82;99686.16;10127453;29;20114;-77
2023/10/23 20:53:42;;;;;;;6.28;1.80;;;;;;;12.16;79.38;99675.91;10115932;29;20048;-77
2023/10/23 20:58:46;;;;;;;3.53;2.67;;;;;;;12.15;79.68;99666.16;10127335;29;20185;-78
2023/10/23 21:03:50;;;;;;;4.20;2.08;;;;;;;12.16;79.86;99660.59;10144789;29;20377;-77
2023/10/23 21:08:54;;;;;;;3.03;2.05;;;;;;;12.15;79.42;99639.22;10148923;29;20080;-77
2023/10/23 21:13:58;;;;;;;5.03;2.00;;;;;;;12.21;78.42;99635.91;10133945;29;20048;-77
2023/10/23 21:19:02;;;;;;;3.30;1.80;;;;;;;12.23;78.07;99639.31;10131718;29;20936;-78
2023/10/23 21:24:06;;;;;;;3.53;1.67;;;;;;;12.17;78.04;99619.22;10116791;29;20535;-78
2023/10/23 21:29:18;;;;;;;2.83;1.88;;;;;;;12.25;77.59;99596.06;10133284;29;20052;-78
2023/10/23 21:34:21;;;;;;;2.40;1.83;;;;;;;12.29;77.23;99592.94;10135303;29;20040;-78
2023/10/23 21:39:24;;;;;;;4.50;1.85;;;;;;;12.26;77.09;99595.06;10196877;29;20039;-77
2023/10/23 21:44:28;;;;;;;3.38;2.05;;;;;;;12.31;77.03;99584.69;10167893;29;20052;-78
2023/10/23 21:49:32;;;;;;;5.80;2.10;;;;;;;12.19;77.83;99581.38;10141928;29;20170;-77
2023/10/23 21:54:36;;;;;;;4.72;1.77;;;;;;;12.20;78.56;99584.91;10131534;29;21371;-77
2023/10/23 21:59:41;;;;;;;2.60;1.67;;;;;;;12.14;79.53;99581.81;10133103;29;20055;-78
2023/10/23 22:04:45;;;;;;;4.15;1.77;;;;;;;11.85;82.55;99583.91;10143872;29;20070;-78
2023/10/23 22:09:48;;;;;;;4.57;1.77;;;;;;;11.73;86.71;99561.72;10140328;29;20107;-79
2023/10/23 22:14:54;;;;;;;3.65;2.20;;;;;;;11.47;90.35;99551.72;10131225;29;20049;-77
2023/10/23 22:19:57;;;;;;;6.88;2.08;;;;;;;11.37;93.33;99540.16;10142211;29;20079;-77
2023/10/23 22:25:00;;;;;;;3.60;1.83;;;;;;;11.21;95.82;99524.66;10127516;29;20056;-77
2023/10/23 22:30:06;;;;;;;3.20;1.90;;;;;;;11.25;97.54;99517.16;10116519;29;20048;-77
2023/10/23 22:35:10;;;;;;;5.10;2.05;;;;;;;11.25;98.38;99515.31;10121701;29;20056;-78
2023/10/23 22:40:15;;;;;;;4.00;1.80;;;;;;;11.20;98.58;99493.41;10136084;29;20068;-77
2023/10/23 22:45:20;;;;;;;5.20;2.13;;;;;;;11.18;99.61;99483.81;10132180;29;20052;-78
2023/10/23 22:50:23;;;;;;;4.88;2.13;;;;;;;11.09;100.00;99487.38;10113162;29;20124;-78
2023/10/23 22:55:28;;;;;;;4.38;2.25;;;;;;;11.01;100.00;99472.84;10124398;29;20059;-77
2023/10/23 23:00:33;;;;;;;5.97;2.10;;;;;;;10.98;100.00;99454.31;10121607;29;20076;-77
2023/10/23 23:05:36;;;;;;;4.95;1.90;;;;;;;10.97;100.00;99443.72;10103005;29;20055;-77